Time;durP1;ratioP1;P1;durP2;ratioP2;P2;SDS_P1;SDS_P2;PMS_P1;PMS_P2;Temp;Humidity;BMP_temperature;BMP_pressure;BME280_temperature;BME280_humidity;BME280_pressure;Samples;Min_cycle;Max_cycle;Signal;HPM_P1;HPM_P2
2021/07/30 00:00:59;;;;;;;13.83;11.27;;;;;;;22.82;81.32;99857.39;1705496;83;21013;-73
2021/07/30 00:03:26;;;;;;;13.80;12.40;;;;;;;22.80;81.39;99855.58;1682220;84;20973;-73
2021/07/30 00:05:53;;;;;;;13.70;11.90;;;;;;;22.74;81.54;99840.67;1705178;83;21152;-71
2021/07/30 00:08:20;;;;;;;14.47;12.57;;;;;;;22.66;81.73;99841.87;1685812;84;21547;-72
2021/07/30 00:10:47;;;;;;;14.33;11.70;;;;;;;22.58;82.00;99838.80;1659126;85;20974;-73
2021/07/30 00:13:14;;;;;;;14.83;12.67;;;;;;;22.51;82.41;99831.03;1679289;83;21011;-73
2021/07/30 00:15:41;;;;;;;15.37;13.23;;;;;;;22.42;82.82;99825.22;1683913;83;21025;-73
2021/07/30 00:18:08;;;;;;;14.97;13.40;;;;;;;22.35;83.34;99825.64;1694220;83;21079;-74
2021/07/30 00:20:37;;;;;;;16.80;13.93;;;;;;;22.30;83.98;99824.54;1675560;83;21115;-72
2021/07/30 00:23:04;;;;;;;16.13;14.43;;;;;;;22.24;84.38;99813.95;1675102;85;21654;-72
2021/07/30 00:25:32;;;;;;;17.83;14.27;;;;;;;22.21;84.89;99810.57;1692015;83;21091;-73
2021/07/30 00:27:59;;;;;;;16.77;14.37;;;;;;;22.19;85.32;99803.33;1686990;83;21085;-71
2021/07/30 00:30:26;;;;;;;15.67;14.13;;;;;;;22.17;85.87;99796.08;1679819;82;21043;-71
2021/07/30 00:32:53;;;;;;;14.07;12.63;;;;;;;22.14;86.49;99791.89;1683504;84;21044;-72
2021/07/30 00:35:20;;;;;;;16.47;14.50;;;;;;;22.09;86.95;99788.88;1682915;84;21129;-71
2021/07/30 00:37:47;;;;;;;20.33;15.60;;;;;;;22.05;87.31;99788.02;1681196;84;21035;-72
2021/07/30 00:40:14;;;;;;;19.07;15.43;;;;;;;22.01;87.75;99787.12;1682799;82;21048;-71
2021/07/30 00:42:49;;;;;;;18.23;16.30;;;;;;;21.97;88.31;99782.95;1687426;84;20964;-73
2021/07/30 00:45:16;;;;;;;18.53;14.97;;;;;;;21.91;88.73;99776.78;1684299;82;20980;-74
2021/07/30 00:47:43;;;;;;;17.13;14.80;;;;;;;21.85;88.98;99776.82;1683125;84;21219;-73
2021/07/30 00:50:10;;;;;;;19.03;13.67;;;;;;;21.79;89.16;99776.31;1693281;82;20902;-73
2021/07/30 00:52:39;;;;;;;17.00;14.07;;;;;;;21.74;89.38;99774.64;1687967;84;20966;-73
2021/07/30 00:55:06;;;;;;;15.93;13.80;;;;;;;21.71;89.53;99779.41;1705459;84;20977;-73
2021/07/30 00:57:33;;;;;;;15.77;13.67;;;;;;;21.69;89.58;99782.28;1698557;84;21107;-71
2021/07/30 01:00:01;;;;;;;18.17;13.73;;;;;;;21.67;89.50;99767.67;1687797;82;20950;-72
2021/07/30 01:02:31;;;;;;;19.00;13.70;;;;;;;21.68;89.55;99778.75;1693726;83;21031;-73
2021/07/30 01:05:05;;;;;;;17.30;14.03;;;;;;;21.67;89.39;99775.04;1689336;84;21033;-72
2021/07/30 01:07:36;;;;;;;17.37;13.67;;;;;;;21.67;89.28;99783.98;1680654;84;20996;-74
2021/07/30 01:10:08;;;;;;;15.53;13.22;;;;;;;21.67;89.19;99781.26;1690822;84;20980;-73
2021/07/30 01:12:38;;;;;;;13.32;11.43;;;;;;;21.68;88.94;99784.76;1687302;82;21536;-73
2021/07/30 01:15:07;;;;;;;15.03;12.63;;;;;;;21.67;88.52;99786.70;1685724;84;21094;-73
2021/07/30 01:17:37;;;;;;;16.73;11.53;;;;;;;21.69;88.04;99785.78;1675451;83;21187;-73
2021/07/30 01:20:08;;;;;;;15.20;11.73;;;;;;;21.71;87.39;99783.48;1677013;83;21213;-73
2021/07/30 01:22:44;;;;;;;13.57;11.60;;;;;;;21.74;87.04;99785.51;1682216;84;21091;-73
2021/07/30 01:25:13;;;;;;;15.07;11.10;;;;;;;21.75;86.57;99785.75;1706395;83;21139;-73
2021/07/30 01:27:43;;;;;;;13.80;9.80;;;;;;;21.76;86.02;99791.39;1686028;83;21020;-73
2021/07/30 01:30:12;;;;;;;12.43;9.60;;;;;;;21.76;84.86;99789.25;1679521;83;21073;-72
2021/07/30 01:32:39;;;;;;;13.23;9.77;;;;;;;21.78;84.12;99795.11;1679470;84;20953;-72
2021/07/30 01:35:06;;;;;;;10.43;8.27;;;;;;;21.82;83.08;99795.22;1691515;83;21544;-73
2021/07/30 01:37:33;;;;;;;9.73;8.20;;;;;;;21.82;81.98;99795.22;1714386;83;22032;-73
2021/07/30 01:40:00;;;;;;;8.90;8.00;;;;;;;21.84;81.18;99790.98;1694628;82;21100;-73
2021/07/30 01:42:27;;;;;;;10.17;7.77;;;;;;;21.85;80.56;99808.09;1688961;83;21374;-73
2021/07/30 01:44:55;;;;;;;9.10;8.20;;;;;;;21.86;79.93;99805.03;1694731;83;21116;-72
2021/07/30 01:47:21;;;;;;;9.27;8.30;;;;;;;21.86;79.56;99805.61;1690207;82;21049;-72
2021/07/30 01:49:50;;;;;;;8.90;7.97;;;;;;;21.84;79.37;99799.72;1680077;83;21168;-72
2021/07/30 01:52:17;;;;;;;8.90;7.77;;;;;;;21.83;79.18;99814.45;1676585;83;21053;-72
2021/07/30 01:54:48;;;;;;;9.27;7.43;;;;;;;21.78;79.06;99820.39;1660121;84;21100;-73
2021/07/30 01:57:16;;;;;;;10.27;7.67;;;;;;;21.78;78.79;99808.70;1685644;84;21546;-73
2021/07/30 01:59:43;;;;;;;9.47;7.17;;;;;;;21.76;78.76;99811.78;1687193;83;21114;-73
2021/07/30 02:02:10;;;;;;;8.00;7.20;;;;;;;21.75;78.32;99823.80;1686637;82;21999;-73
2021/07/30 02:04:36;;;;;;;10.93;7.10;;;;;;;21.72;77.74;99819.06;1682224;84;21052;-73
2021/07/30 02:07:03;;;;;;;8.70;7.00;;;;;;;21.72;77.59;99827.22;1692138;84;20965;-73
2021/07/30 02:09:31;;;;;;;8.80;7.03;;;;;;;21.70;77.37;99825.41;1689569;84;21551;-73
2021/07/30 02:11:58;;;;;;;10.70;7.50;;;;;;;21.69;77.03;99829.27;1683022;82;20992;-72
2021/07/30 02:14:28;;;;;;;7.97;6.77;;;;;;;21.66;76.96;99828.61;1693254;84;22187;-72
2021/07/30 02:16:58;;;;;;;8.27;6.80;;;;;;;21.65;76.99;99836.55;1684103;84;21165;-73
2021/07/30 02:19:25;;;;;;;7.83;7.03;;;;;;;21.63;77.01;99836.67;1684943;84;21043;-72
2021/07/30 02:21:55;;;;;;;7.97;6.53;;;;;;;21.61;76.98;99845.73;1685905;82;21050;-72
2021/07/30 02:24:23;;;;;;;8.43;6.87;;;;;;;21.57;77.02;99850.29;1688331;84;21017;-72
2021/07/30 02:26:50;;;;;;;10.20;7.07;;;;;;;21.54;77.16;99851.20;1683631;84;22007;-72
2021/07/30 02:29:18;;;;;;;7.93;7.13;;;;;;;21.53;77.17;99854.27;1689147;84;21539;-71
2021/07/30 02:31:44;;;;;;;8.77;7.23;;;;;;;21.50;77.14;99857.11;1682349;82;21947;-72
2021/07/30 02:34:12;;;;;;;10.43;6.93;;;;;;;21.48;77.20;99866.16;1685077;84;20980;-73
2021/07/30 02:36:39;;;;;;;11.63;7.27;;;;;;;21.47;77.35;99871.95;1680893;84;20941;-71
2021/07/30 02:39:06;;;;;;;7.90;7.00;;;;;;;21.45;77.52;99878.30;1688615;84;21122;-72
2021/07/30 02:41:33;;;;;;;9.77;7.53;;;;;;;21.43;77.76;99882.73;1679495;84;21111;-73
2021/07/30 02:44:00;;;;;;;8.10;7.03;;;;;;;21.42;78.04;99879.80;1683993;84;21004;-72
2021/07/30 02:46:27;;;;;;;8.90;7.27;;;;;;;21.40;78.28;99888.07;1690607;84;20964;-72
2021/07/30 02:48:55;;;;;;;9.33;7.73;;;;;;;21.36;78.48;99889.33;1680890;84;20988;-72
2021/07/30 02:51:25;;;;;;;9.87;7.87;;;;;;;21.34;78.55;99895.63;1689288;84;21724;-72
2021/07/30 02:53:52;;;;;;;8.93;7.50;;;;;;;21.31;78.66;99901.19;1681027;84;21542;-71
2021/07/30 02:56:19;;;;;;;8.60;7.67;;;;;;;21.30;78.79;99909.13;1670504;85;21136;-71
2021/07/30 02:58:46;;;;;;;9.70;7.73;;;;;;;21.29;78.92;99906.19;1682129;84;21082;-70
2021/07/30 03:01:13;;;;;;;8.77;7.47;;;;;;;21.29;78.97;99909.48;1689691;84;21546;-71
2021/07/30 03:03:39;;;;;;;8.27;7.47;;;;;;;21.29;79.18;99910.84;1684682;82;22088;-71
2021/07/30 03:06:06;;;;;;;8.47;7.57;;;;;;;21.29;79.23;99906.77;1686240;84;21004;-70
2021/07/30 03:08:32;;;;;;;8.60;7.43;;;;;;;21.30;79.19;99915.13;1681912;84;21036;-72
2021/07/30 03:10:59;;;;;;;8.27;7.13;;;;;;;21.31;79.39;99918.05;1676379;84;21063;-71
2021/07/30 03:13:26;;;;;;;9.37;7.80;;;;;;;21.34;79.79;99917.37;1681233;84;21063;-72
2021/07/30 03:15:54;;;;;;;8.27;7.37;;;;;;;21.35;80.02;99923.62;1682514;84;21152;-71
2021/07/30 03:18:22;;;;;;;8.37;7.47;;;;;;;21.36;80.40;99923.28;1688280;84;21497;-71
2021/07/30 03:20:49;;;;;;;8.73;7.67;;;;;;;21.35;80.35;99931.77;1688197;84;21673;-72
2021/07/30 03:23:16;;;;;;;9.50;7.70;;;;;;;21.35;80.40;99927.69;1685362;82;21118;-72
2021/07/30 03:25:43;;;;;;;8.53;7.63;;;;;;;21.36;80.54;99934.16;1684926;84;20999;-72
2021/07/30 03:28:10;;;;;;;9.10;8.00;;;;;;;21.40;80.66;99941.83;1681564;84;21835;-72
2021/07/30 03:30:36;;;;;;;10.40;8.10;;;;;;;21.44;80.81;99940.00;1677725;84;21003;-72
2021/07/30 03:33:03;;;;;;;10.00;7.77;;;;;;;21.49;81.04;99939.77;1681460;82;21632;-72
2021/07/30 03:35:30;;;;;;;9.40;7.90;;;;;;;21.54;81.20;99946.88;1683719;84;20964;-72
2021/07/30 03:37:57;;;;;;;9.63;8.63;;;;;;;21.59;81.32;99945.86;1683072;84;21024;-72
2021/07/30 03:40:24;;;;;;;10.37;8.33;;;;;;;21.63;81.32;99945.38;1691213;84;21966;-72
2021/07/30 03:42:51;;;;;;;10.70;9.07;;;;;;;21.65;81.31;99949.34;1690946;84;21535;-72
2021/07/30 03:45:20;;;;;;;11.30;9.03;;;;;;;21.69;81.41;99952.16;1685334;84;21044;-72
2021/07/30 03:47:47;;;;;;;10.07;8.23;;;;;;;21.72;81.35;99959.05;1676403;84;21008;-71
2021/07/30 03:50:16;;;;;;;10.03;9.03;;;;;;;21.77;81.39;99964.22;1677036;84;21001;-70
2021/07/30 03:52:44;;;;;;;10.70;8.68;;;;;;;21.80;81.17;99965.45;1681820;82;21147;-71
2021/07/30 03:55:11;;;;;;;10.03;8.93;;;;;;;21.85;81.11;99969.84;1680976;84;21019;-71
2021/07/30 03:57:38;;;;;;;12.90;10.13;;;;;;;21.89;81.10;99970.75;1695428;84;21531;-71
2021/07/30 04:00:07;;;;;;;11.93;9.77;;;;;;;21.94;81.22;99974.56;1684083;84;21586;-71
2021/07/30 04:02:34;;;;;;;12.13;9.67;;;;;;;21.99;81.08;99979.77;1691575;82;21113;-71
2021/07/30 04:05:00;;;;;;;11.90;9.80;;;;;;;22.03;81.00;99979.28;1686435;82;21831;-70
2021/07/30 04:07:28;;;;;;;10.53;9.53;;;;;;;22.06;80.87;99985.95;1682266;84;21028;-71
2021/07/30 04:09:55;;;;;;;10.43;9.37;;;;;;;22.08;80.82;99985.02;1689473;84;21582;-71
2021/07/30 04:12:22;;;;;;;10.30;9.30;;;;;;;22.10;80.58;99982.19;1682916;84;21147;-71
2021/07/30 04:14:49;;;;;;;9.83;8.83;;;;;;;22.14;80.33;99986.35;1694968;82;21085;-70
2021/07/30 04:17:15;;;;;;;10.53;9.43;;;;;;;22.16;80.17;99986.84;1701604;83;21765;-70
2021/07/30 04:19:46;;;;;;;10.60;9.30;;;;;;;22.17;80.08;99987.84;1693469;83;20960;-69
2021/07/30 04:22:13;;;;;;;9.78;8.78;;;;;;;22.18;79.98;99989.44;1706810;83;21082;-70
2021/07/30 04:24:40;;;;;;;9.87;8.83;;;;;;;22.16;79.93;99983.55;1682412;83;21609;-71
2021/07/30 04:27:07;;;;;;;10.30;9.30;;;;;;;22.13;79.95;99995.09;1692029;83;21068;-70
2021/07/30 04:29:40;;;;;;;10.80;9.00;;;;;;;22.15;79.98;99984.69;1681082;84;21488;-71
2021/07/30 04:32:09;;;;;;;8.53;7.33;;;;;;;22.18;79.95;99988.08;1675232;83;20957;-72
2021/07/30 04:34:37;;;;;;;10.67;9.27;;;;;;;22.24;79.31;99988.59;1684874;84;21051;-72
2021/07/30 04:37:05;;;;;;;9.77;7.83;;;;;;;22.24;78.72;99989.95;1694245;84;21550;-72
2021/07/30 04:39:32;;;;;;;9.70;8.63;;;;;;;22.24;78.49;99992.67;1679345;84;21514;-71
2021/07/30 04:41:59;;;;;;;15.13;8.60;;;;;;;22.25;78.20;99991.55;1684517;84;21553;-72
2021/07/30 04:44:26;;;;;;;9.37;8.07;;;;;;;22.26;78.06;99989.62;1687388;82;21037;-72
2021/07/30 04:46:53;;;;;;;8.93;7.90;;;;;;;22.34;78.12;100000.89;1684384;84;21004;-71
2021/07/30 04:49:20;;;;;;;9.10;8.10;;;;;;;22.42;77.80;99994.50;1689734;84;21103;-71
2021/07/30 04:51:47;;;;;;;9.97;7.90;;;;;;;22.46;77.51;99996.73;1685845;84;21013;-71
2021/07/30 04:54:13;;;;;;;9.30;8.00;;;;;;;22.49;77.04;99993.32;1680796;84;21765;-71
2021/07/30 04:56:42;;;;;;;9.00;8.00;;;;;;;22.54;76.73;100001.78;1690495;84;20978;-71
2021/07/30 04:59:09;;;;;;;10.37;9.00;;;;;;;22.59;76.25;99996.88;1691783;84;21141;-71
2021/07/30 05:01:41;;;;;;;9.47;8.43;;;;;;;22.62;75.58;99998.89;1697307;83;21112;-70
2021/07/30 05:04:05;;;;;;;8.93;7.80;;;;;;;22.67;75.46;100004.09;1683996;83;21058;-71
2021/07/30 05:06:31;;;;;;;9.43;7.90;;;;;;;22.74;75.42;99993.94;1694755;82;21114;-71
2021/07/30 05:08:58;;;;;;;8.67;7.70;;;;;;;22.86;75.50;99999.84;1697322;83;21524;-71
2021/07/30 05:11:26;;;;;;;8.80;7.90;;;;;;;23.00;74.99;99998.05;1686477;84;21055;-71
2021/07/30 05:13:52;;;;;;;9.37;8.10;;;;;;;23.08;74.21;100001.95;1681409;83;21069;-71
2021/07/30 05:16:20;;;;;;;9.33;8.33;;;;;;;23.11;73.55;99994.43;1679877;83;21491;-71
2021/07/30 05:18:48;;;;;;;9.63;8.00;;;;;;;23.12;73.42;100000.66;1692214;83;21169;-72
2021/07/30 05:21:15;;;;;;;8.87;7.70;;;;;;;23.12;73.29;99996.00;1693700;84;21012;-71
2021/07/30 05:23:42;;;;;;;8.60;7.43;;;;;;;23.13;72.91;100002.23;1701734;82;21643;-72
2021/07/30 05:26:09;;;;;;;8.70;7.80;;;;;;;23.16;73.24;99997.44;1684432;83;21535;-72
2021/07/30 05:28:36;;;;;;;9.60;8.23;;;;;;;23.21;72.83;100003.20;1674542;83;21135;-72
2021/07/30 05:31:03;;;;;;;10.03;8.73;;;;;;;23.23;72.63;99998.98;1676326;84;21182;-72
2021/07/30 05:33:30;;;;;;;10.30;8.47;;;;;;;23.27;72.45;99999.84;1695912;83;21056;-73
2021/07/30 05:35:57;;;;;;;10.70;8.00;;;;;;;23.33;72.14;100005.23;1678726;83;21076;-72
2021/07/30 05:38:24;;;;;;;8.70;7.80;;;;;;;23.39;72.16;99996.98;1701285;83;21134;-71
2021/07/30 05:40:51;;;;;;;10.13;7.87;;;;;;;23.46;72.05;99997.73;1690795;82;21607;-71
2021/07/30 05:43:18;;;;;;;11.13;8.30;;;;;;;23.53;72.04;100003.91;1691095;83;21484;-72
2021/07/30 05:45:45;;;;;;;10.03;7.73;;;;;;;23.59;71.90;100011.44;1695322;82;21105;-72
2021/07/30 05:48:14;;;;;;;9.33;8.33;;;;;;;23.64;72.15;100007.63;1697909;82;21032;-71
2021/07/30 05:50:41;;;;;;;8.73;7.20;;;;;;;23.72;71.61;100009.36;1693713;83;21053;-72
2021/07/30 05:53:09;;;;;;;9.60;7.70;;;;;;;23.87;71.43;100013.18;1680443;84;21008;-72
2021/07/30 05:55:37;;;;;;;9.60;7.20;;;;;;;23.97;69.70;100011.81;1695198;82;21389;-72
2021/07/30 05:58:04;;;;;;;9.93;8.23;;;;;;;24.07;69.70;100007.91;1701509;83;21151;-73
2021/07/30 06:00:30;;;;;;;9.60;7.73;;;;;;;24.17;68.75;100002.44;1679918;84;21034;-71
2021/07/30 06:02:57;;;;;;;10.00;7.87;;;;;;;24.25;68.31;100004.16;1680154;83;21146;-72
2021/07/30 06:05:24;;;;;;;11.07;7.73;;;;;;;24.37;67.85;100011.38;1685040;83;21036;-72
2021/07/30 06:07:52;;;;;;;10.70;8.07;;;;;;;24.50;67.39;100011.44;1674701;85;22008;-73
2021/07/30 06:10:18;;;;;;;11.23;7.63;;;;;;;24.54;66.75;100013.64;1674419;84;21062;-73
2021/07/30 06:12:45;;;;;;;10.43;7.53;;;;;;;24.63;66.57;100009.31;1702304;83;21096;-72
2021/07/30 06:15:12;;;;;;;9.87;7.60;;;;;;;24.73;66.22;100002.45;1693622;82;21508;-73
2021/07/30 06:17:39;;;;;;;10.17;7.70;;;;;;;24.78;66.07;100002.15;1694927;83;21455;-73
2021/07/30 06:20:08;;;;;;;10.50;7.80;;;;;;;24.86;65.79;99998.36;1701214;83;22239;-75
2021/07/30 06:22:36;;;;;;;9.30;7.60;;;;;;;24.89;65.32;99998.99;1702469;83;21065;-74
2021/07/30 06:25:06;;;;;;;11.43;7.70;;;;;;;24.93;64.62;99994.36;1677961;84;21511;-75
2021/07/30 06:27:34;;;;;;;10.63;8.53;;;;;;;24.89;63.96;99997.62;1677249;83;21499;-73
2021/07/30 06:30:03;;;;;;;8.30;7.07;;;;;;;24.86;64.13;100001.09;1694406;84;21004;-73
2021/07/30 06:32:30;;;;;;;11.43;8.43;;;;;;;24.91;64.11;99998.06;1698406;83;21170;-73
2021/07/30 06:34:57;;;;;;;10.00;8.10;;;;;;;25.00;64.24;99993.68;1682470;84;21059;-74
2021/07/30 06:37:24;;;;;;;12.53;9.40;;;;;;;25.11;63.88;99991.91;1681133;83;21103;-74
2021/07/30 06:39:51;;;;;;;10.10;7.93;;;;;;;25.17;63.82;99989.66;1686417;84;21084;-74
2021/07/30 06:42:17;;;;;;;9.43;7.80;;;;;;;25.24;63.49;99982.94;1688944;83;21115;-74
2021/07/30 06:44:47;;;;;;;10.77;8.33;;;;;;;25.32;63.50;99983.23;1688332;84;21163;-76
2021/07/30 06:47:15;;;;;;;9.03;8.03;;;;;;;25.47;63.05;99979.53;1692673;82;21052;-76
2021/07/30 06:49:42;;;;;;;11.77;7.80;;;;;;;25.62;62.61;99985.95;1691137;83;21100;-77
2021/07/30 06:52:08;;;;;;;9.77;6.67;;;;;;;25.72;61.62;99984.50;1681320;84;20996;-78
2021/07/30 06:54:35;;;;;;;9.60;7.30;;;;;;;25.82;61.48;99987.19;1697117;83;21544;-74
2021/07/30 06:57:03;;;;;;;8.97;7.27;;;;;;;25.87;60.43;99976.70;1697300;82;21617;-74
2021/07/30 06:59:29;;;;;;;12.57;7.93;;;;;;;25.93;60.14;99987.52;1696364;82;21108;-73
2021/07/30 07:01:56;;;;;;;10.23;6.93;;;;;;;26.03;59.65;99980.58;1673309;85;21178;-72
2021/07/30 07:04:23;;;;;;;9.13;6.83;;;;;;;26.11;58.90;99980.06;1682364;84;21028;-75
2021/07/30 07:06:54;;;;;;;6.47;5.87;;;;;;;26.17;58.31;99982.08;1693416;82;21120;-72
2021/07/30 07:09:21;;;;;;;7.03;5.60;;;;;;;26.28;55.58;99975.33;1693904;83;21576;-73
2021/07/30 07:11:48;;;;;;;8.13;5.97;;;;;;;26.36;54.32;99968.77;1665174;85;21117;-73
2021/07/30 07:14:14;;;;;;;8.23;6.60;;;;;;;26.44;55.33;99973.72;1680202;84;21078;-72
2021/07/30 07:16:43;;;;;;;7.37;5.90;;;;;;;26.49;55.05;99980.81;1695700;82;21558;-73
2021/07/30 07:19:10;;;;;;;7.53;6.60;;;;;;;26.52;55.01;99976.77;1681429;84;21062;-74
2021/07/30 07:21:38;;;;;;;8.30;6.60;;;;;;;26.58;55.03;99973.06;1679771;84;21608;-73
2021/07/30 07:24:06;;;;;;;8.53;7.10;;;;;;;26.66;55.17;99978.81;1677346;84;21090;-73
2021/07/30 07:26:36;;;;;;;9.93;7.30;;;;;;;26.72;54.35;99981.41;1672587;83;21757;-73
2021/07/30 07:29:04;;;;;;;7.10;6.40;;;;;;;26.76;54.26;99978.11;1674981;84;21223;-73
2021/07/30 07:31:31;;;;;;;7.00;6.30;;;;;;;26.80;54.06;99976.17;1687951;83;21105;-73
2021/07/30 07:33:58;;;;;;;8.27;6.30;;;;;;;26.83;52.84;99980.11;1690324;84;21151;-73
2021/07/30 07:36:25;;;;;;;7.93;6.83;;;;;;;26.80;53.08;99984.98;1685912;83;21088;-73
2021/07/30 07:38:52;;;;;;;9.17;6.20;;;;;;;26.78;52.00;99983.97;1671570;83;21605;-73
2021/07/30 07:41:18;;;;;;;8.23;6.47;;;;;;;26.83;51.92;99983.63;1669332;84;21150;-73
2021/07/30 07:43:46;;;;;;;9.53;6.53;;;;;;;26.94;52.12;99990.55;1698152;83;21140;-72
2021/07/30 07:46:12;;;;;;;9.70;7.30;;;;;;;27.10;51.71;99986.93;1679467;84;21147;-74
2021/07/30 07:48:40;;;;;;;8.20;6.80;;;;;;;27.23;51.70;99988.80;1699165;82;21055;-72
2021/07/30 07:51:07;;;;;;;7.80;6.60;;;;;;;27.23;50.64;99991.53;1694489;82;21104;-73
2021/07/30 07:53:34;;;;;;;7.77;6.97;;;;;;;27.02;50.87;99989.44;1696706;82;21096;-74
2021/07/30 07:56:02;;;;;;;7.87;7.03;;;;;;;26.89;51.26;99993.08;1708482;83;21060;-74
2021/07/30 07:58:31;;;;;;;10.87;6.93;;;;;;;26.87;51.09;99998.14;1701465;82;21131;-72
2021/07/30 08:00:58;;;;;;;8.27;6.23;;;;;;;26.88;50.90;99994.81;1687962;83;21057;-72
2021/07/30 08:03:24;;;;;;;8.00;6.40;;;;;;;26.88;50.60;99998.36;1683727;84;21082;-73
2021/07/30 08:05:52;;;;;;;7.43;6.70;;;;;;;26.89;49.91;99997.19;1687581;83;21563;-73
2021/07/30 08:08:19;;;;;;;6.90;6.20;;;;;;;26.97;49.74;100002.13;1693229;82;21535;-73
2021/07/30 08:10:47;;;;;;;7.80;6.83;;;;;;;27.15;49.98;99997.36;1682861;84;23272;-74
2021/07/30 08:13:15;;;;;;;8.70;6.40;;;;;;;27.29;49.01;99998.82;1689706;83;21060;-75
2021/07/30 08:15:42;;;;;;;7.93;6.13;;;;;;;27.43;48.46;99996.73;1683798;84;21593;-73
2021/07/30 08:18:09;;;;;;;7.37;6.37;;;;;;;27.56;48.40;99989.14;1664904;83;22482;-73
2021/07/30 08:20:36;;;;;;;7.30;6.50;;;;;;;27.69;47.70;99996.44;1683520;84;21087;-79
2021/07/30 08:23:03;;;;;;;7.87;6.30;;;;;;;27.82;46.78;99999.66;1663321;85;21145;-71
2021/07/30 08:25:30;;;;;;;7.27;6.57;;;;;;;27.92;46.49;99997.52;1677691;84;21433;-73
2021/07/30 08:27:57;;;;;;;8.60;6.47;;;;;;;28.00;46.23;99992.83;1673791;83;21096;-73
2021/07/30 08:30:24;;;;;;;6.53;5.80;;;;;;;28.09;46.53;100001.48;1677140;84;21104;-71
2021/07/30 08:32:51;;;;;;;6.70;5.97;;;;;;;28.20;45.81;99994.63;1681935;84;21105;-73
2021/07/30 08:35:18;;;;;;;7.40;5.83;;;;;;;28.23;45.54;100002.09;1675696;83;21232;-73
2021/07/30 08:37:44;;;;;;;7.37;6.40;;;;;;;28.23;45.20;99989.17;1684095;84;21110;-73
2021/07/30 08:40:13;;;;;;;7.40;6.60;;;;;;;28.34;44.73;99990.55;1667870;83;21160;-72
2021/07/30 08:42:41;;;;;;;7.03;6.30;;;;;;;28.40;44.03;99994.50;1698103;84;21163;-72
2021/07/30 08:45:08;;;;;;;8.67;6.03;;;;;;;28.48;44.21;99991.16;1706129;83;21084;-73
2021/07/30 08:47:35;;;;;;;8.87;6.80;;;;;;;28.53;43.66;99996.28;1701943;82;21496;-72
2021/07/30 08:50:03;;;;;;;8.40;6.53;;;;;;;28.52;43.66;99995.47;1697850;82;21025;-71
2021/07/30 08:52:37;;;;;;;8.43;7.20;;;;;;;28.61;44.11;99986.84;1692783;82;22185;-72
2021/07/30 08:55:05;;;;;;;7.87;6.93;;;;;;;28.74;44.31;100002.34;1689467;83;21015;-71
2021/07/30 08:57:32;;;;;;;6.63;5.93;;;;;;;28.78;43.94;99986.63;1709864;82;21563;-71
2021/07/30 09:00:13;;;;;;;7.30;6.60;;;;;;;28.82;43.29;99992.90;1692967;82;21080;-71
2021/07/30 09:02:40;;;;;;;;;;;;;;;28.82;44.32;99992.12;1687046;84;21526;-73
2021/07/30 09:05:33;;;;;;;6.83;5.97;;;;;;;28.88;43.52;99983.08;1687964;84;20191;-72
2021/07/30 09:08:03;;;;;;;7.77;6.33;;;;;;;28.98;43.71;99988.36;1666237;84;21033;-71
2021/07/30 09:10:42;;;;;;;8.07;7.13;;;;;;;29.11;43.70;99995.04;1696346;82;21148;-72
2021/07/30 09:13:27;;;;;;;8.07;6.93;;;;;;;29.18;43.50;99989.52;1675060;84;21131;-72
2021/07/30 09:16:14;;;;;;;7.30;6.60;;;;;;;29.22;42.97;99999.16;1697165;83;21096;-74
2021/07/30 09:18:44;;;;;;;7.27;6.57;;;;;;;29.16;42.15;99986.40;1700083;82;21085;-74
2021/07/30 09:21:33;;;;;;;7.50;6.33;;;;;;;29.10;42.11;99979.73;1693164;83;21100;-75
2021/07/30 09:24:09;;;;;;;6.92;6.10;;;;;;;29.18;42.52;99977.73;1680307;84;21011;-76
2021/07/30 09:26:50;;;;;;;7.30;6.10;;;;;;;29.28;42.10;99978.29;1667181;85;21203;-75
2021/07/30 09:29:22;;;;;;;9.57;6.57;;;;;;;29.29;41.89;99975.75;1680143;83;21597;-74
2021/07/30 09:32:05;;;;;;;7.17;5.90;;;;;;;29.33;42.42;99976.52;1677754;83;21139;-76
2021/07/30 09:34:49;;;;;;;7.20;6.47;;;;;;;29.37;41.87;99977.87;1680734;84;21097;-73
2021/07/30 09:37:21;;;;;;;7.57;6.47;;;;;;;29.38;41.32;99978.06;1698772;84;21052;-74
2021/07/30 09:39:51;;;;;;;6.77;5.97;;;;;;;29.41;41.95;99981.39;1673550;83;21104;-74
2021/07/30 09:42:33;;;;;;;6.92;5.78;;;;;;;29.44;40.88;99972.34;1683896;84;21578;-74
2021/07/30 09:45:03;;;;;;;6.90;6.20;;;;;;;29.41;40.92;99973.14;1694869;83;21065;-75
2021/07/30 09:47:33;;;;;;;6.47;5.80;;;;;;;29.40;41.11;99972.36;1696265;83;21677;-75
2021/07/30 09:50:07;;;;;;;6.60;5.72;;;;;;;29.40;40.28;99976.48;1678522;83;21007;-76
2021/07/30 09:52:39;;;;;;;7.10;5.77;;;;;;;29.41;41.20;99977.27;1667510;85;21870;-75
2021/07/30 09:55:09;;;;;;;6.00;5.30;;;;;;;29.34;41.49;99974.55;1696553;84;21020;-73
2021/07/30 09:57:41;;;;;;;5.93;5.30;;;;;;;29.34;40.08;99970.42;1689625;82;21564;-73
2021/07/30 10:00:12;;;;;;;7.13;5.37;;;;;;;29.31;39.25;99968.47;1701675;83;21104;-75
2021/07/30 10:02:46;;;;;;;6.13;5.30;;;;;;;29.33;40.22;99977.11;1681869;83;21110;-74
2021/07/30 10:05:18;;;;;;;6.07;5.33;;;;;;;29.39;39.71;99975.52;1660291;85;21594;-73
2021/07/30 10:07:45;;;;;;;9.40;5.43;;;;;;;29.42;38.60;99968.63;1682852;84;21514;-72
2021/07/30 10:10:17;;;;;;;5.47;4.63;;;;;;;29.39;38.30;99967.27;1692126;83;21063;-73
2021/07/30 10:12:57;;;;;;;6.45;4.80;;;;;;;29.40;38.01;99968.23;1691210;84;21427;-73
2021/07/30 10:15:23;;;;;;;10.93;4.63;;;;;;;29.41;36.81;99959.38;1688574;84;21447;-74
2021/07/30 10:17:52;;;;;;;5.13;3.90;;;;;;;29.44;36.31;99962.11;1677014;84;21110;-72
2021/07/30 10:20:21;;;;;;;4.62;4.12;;;;;;;29.53;36.59;99953.44;1678185;84;21052;-74
2021/07/30 10:23:07;;;;;;;5.15;4.22;;;;;;;29.61;35.73;99956.95;1686270;82;20993;-73
2021/07/30 10:25:45;;;;;;;6.12;3.85;;;;;;;29.67;34.44;99958.89;1678906;84;21063;-72
2021/07/30 10:28:28;;;;;;;6.37;4.07;;;;;;;29.68;34.48;99952.79;1682360;84;21079;-72
2021/07/30 10:31:02;;;;;;;5.63;4.33;;;;;;;29.64;35.05;99950.06;1674856;82;21725;-72
2021/07/30 10:33:37;;;;;;;7.43;4.50;;;;;;;29.73;34.78;99950.23;1688447;84;21055;-71
2021/07/30 10:36:12;;;;;;;5.33;4.20;;;;;;;29.75;35.06;99956.13;1691946;84;21487;-72
2021/07/30 10:38:39;;;;;;;5.73;3.97;;;;;;;29.63;34.51;99952.63;1702167;83;21561;-72
2021/07/30 10:41:11;;;;;;;4.40;3.80;;;;;;;29.56;34.99;99945.77;1700748;82;21130;-72
2021/07/30 10:44:04;;;;;;;4.13;3.73;;;;;;;29.53;35.01;99942.44;1701324;83;21200;-72
2021/07/30 10:46:31;;;;;;;5.50;3.80;;;;;;;29.54;34.81;99967.98;1699803;83;21420;-74
2021/07/30 10:48:58;;;;;;;4.95;3.70;;;;;;;29.62;34.63;99951.07;1697432;83;21141;-72
2021/07/30 10:51:28;;;;;;;4.72;4.08;;;;;;;29.75;34.24;99948.64;1693897;83;21349;-72
2021/07/30 10:54:02;;;;;;;5.47;3.45;;;;;;;29.85;34.45;99949.17;1698377;83;21505;-73
2021/07/30 10:56:39;;;;;;;3.95;3.40;;;;;;;29.95;33.62;99947.53;1698065;83;21590;-73
2021/07/30 10:59:06;;;;;;;3.67;3.20;;;;;;;29.98;32.70;99948.11;1707563;82;21114;-72
2021/07/30 11:01:46;;;;;;;3.52;3.12;;;;;;;29.98;32.22;99945.36;1698839;83;21055;-74
2021/07/30 11:04:13;;;;;;;4.75;3.55;;;;;;;29.98;32.11;99944.55;1701916;83;21090;-72
2021/07/30 11:06:47;;;;;;;4.12;3.10;;;;;;;29.99;32.62;99931.77;1696439;83;21549;-71
2021/07/30 11:09:18;;;;;;;5.65;3.62;;;;;;;30.02;32.41;99933.71;1697133;83;22177;-72
2021/07/30 11:11:59;;;;;;;3.73;3.20;;;;;;;30.06;32.73;99922.07;1688819;83;21052;-72
2021/07/30 11:14:35;;;;;;;4.30;3.25;;;;;;;30.07;33.34;99929.14;1700092;83;21124;-72
2021/07/30 11:17:07;;;;;;;4.67;3.60;;;;;;;30.07;33.04;99918.12;1698811;83;21523;-72
2021/07/30 11:19:47;;;;;;;4.50;3.62;;;;;;;30.05;33.48;99923.27;1696285;83;21011;-72
2021/07/30 11:22:18;;;;;;;6.03;3.90;;;;;;;30.03;33.30;99915.99;1717919;83;21128;-72
2021/07/30 11:24:49;;;;;;;5.70;3.93;;;;;;;29.94;33.97;99914.28;1708473;83;21054;-72
2021/07/30 11:27:18;;;;;;;5.67;3.67;;;;;;;30.03;33.87;99924.25;1691819;83;21093;-72
2021/07/30 11:29:51;;;;;;;5.00;3.77;;;;;;;30.12;33.65;99916.33;1701856;83;21075;-72
2021/07/30 11:32:20;;;;;;;4.05;3.40;;;;;;;30.16;33.29;99912.16;1694392;83;21067;-72
2021/07/30 11:34:52;;;;;;;6.15;3.70;;;;;;;30.20;32.53;99899.77;1701683;83;21150;-72
2021/07/30 11:37:26;;;;;;;4.78;3.45;;;;;;;30.26;33.57;99908.56;1701244;83;21067;-73